Time;durP1;ratioP1;P1;durP2;ratioP2;P2;SDS_P1;SDS_P2;PMS_P1;PMS_P2;Temp;Humidity;BMP_temperature;BMP_pressure;BME280_temperature;BME280_humidity;BME280_pressure;Samples;Min_cycle;Max_cycle;Signal;HPM_P1;HPM_P2
2020/12/20 00:02:12;;;;;;;4.13;1.42;;;11.30;99.90;;;;;;5096291;28;20177;-77
2020/12/20 00:04:38;;;;;;;0.50;0.50;;;11.30;99.90;;;;;;5095980;28;20204;-75
2020/12/20 00:07:07;;;;;;;5.10;2.03;;;11.40;99.90;;;;;;5095861;28;20274;-76
2020/12/20 00:09:33;;;;;;;0.25;0.25;;;11.30;99.90;;;;;;5095866;28;20179;-78
2020/12/20 00:11:58;;;;;;;0.73;0.73;;;11.40;99.90;;;;;;5095852;28;20204;-78
2020/12/20 00:14:26;;;;;;;1.70;1.48;;;11.40;99.90;;;;;;5095671;28;20186;-76
2020/12/20 00:16:54;;;;;;;5.30;1.67;;;11.50;99.90;;;;;;5096057;28;20162;-77
2020/12/20 00:19:20;;;;;;;0.35;0.35;;;11.50;99.90;;;;;;5095931;28;20178;-75
2020/12/20 00:21:45;;;;;;;0.47;0.45;;;11.40;99.90;;;;;;5095621;28;20587;-75
2020/12/20 00:24:11;;;;;;;0.22;0.22;;;11.20;99.90;;;;;;5095477;28;20656;-74
2020/12/20 00:26:41;;;;;;;9.20;1.17;;;11.10;99.90;;;;;;5095509;28;20162;-75
2020/12/20 00:29:07;;;;;;;0.50;0.50;;;11.20;99.90;;;;;;5095426;28;20531;-77
2020/12/20 00:31:32;;;;;;;16.05;0.73;;;11.30;99.90;;;;;;5077313;28;20174;-73
2020/12/20 00:33:58;;;;;;;0.25;0.25;;;11.30;99.90;;;;;;5095416;28;20276;-76
2020/12/20 00:36:23;;;;;;;0.22;0.22;;;11.30;99.90;;;;;;5095357;28;20150;-75
2020/12/20 00:38:49;;;;;;;0.95;0.95;;;11.40;99.90;;;;;;5095269;28;20648;-74
2020/12/20 00:41:14;;;;;;;0.20;0.20;;;11.50;99.90;;;;;;5095141;28;20174;-74
2020/12/20 00:43:40;;;;;;;0.55;0.55;;;11.60;99.90;;;;;;5095056;28;20165;-74
2020/12/20 00:46:05;;;;;;;4.72;0.45;;;11.60;99.90;;;;;;5095302;28;20578;-74
2020/12/20 00:48:31;;;;;;;0.57;0.57;;;11.70;99.90;;;;;;5095156;28;20198;-74
2020/12/20 00:50:56;;;;;;;0.32;0.32;;;11.70;99.90;;;;;;5095049;28;20350;-74
2020/12/20 00:53:22;;;;;;;0.25;0.25;;;11.60;99.90;;;;;;5094197;28;20154;-75
2020/12/20 00:55:48;;;;;;;1.75;0.82;;;11.40;99.90;;;;;;5094655;28;20328;-75
2020/12/20 00:58:14;;;;;;;0.40;0.40;;;11.40;99.90;;;;;;5094877;28;20181;-74
2020/12/20 01:00:39;;;;;;;0.32;0.32;;;11.40;99.90;;;;;;5094911;28;20528;-74
2020/12/20 01:03:05;;;;;;;0.52;0.50;;;11.40;99.90;;;;;;5094891;28;20165;-75
2020/12/20 01:05:31;;;;;;;0.20;0.20;;;11.30;99.90;;;;;;5094718;28;20182;-75
2020/12/20 01:07:56;;;;;;;0.30;0.30;;;11.20;99.90;;;;;;5076544;28;20198;-75
2020/12/20 01:10:22;;;;;;;1.17;0.47;;;11.10;99.90;;;;;;5094594;28;20204;-75
2020/12/20 01:12:47;;;;;;;0.22;0.22;;;11.20;99.90;;;;;;5094523;28;20673;-74
2020/12/20 01:15:13;;;;;;;0.25;0.25;;;11.10;99.90;;;;;;5094565;28;20197;-74
2020/12/20 01:17:38;;;;;;;0.98;0.93;;;11.10;99.90;;;;;;5094410;28;20170;-74
2020/12/20 01:20:05;;;;;;;2.42;0.95;;;11.20;99.90;;;;;;5094401;28;20546;-75
2020/12/20 01:22:31;;;;;;;0.40;0.40;;;11.30;99.90;;;;;;5094569;28;20181;-75
2020/12/20 01:24:57;;;;;;;4.93;1.85;;;11.30;99.90;;;;;;5076305;28;20700;-74
2020/12/20 01:27:23;;;;;;;0.57;0.57;;;11.40;99.90;;;;;;5094305;28;20243;-75
2020/12/20 01:29:48;;;;;;;1.05;1.02;;;11.50;99.90;;;;;;5094327;28;20210;-75
2020/12/20 01:32:17;;;;;;;0.20;0.20;;;11.50;99.90;;;;;;5094385;28;20177;-77
2020/12/20 01:34:43;;;;;;;0.90;0.90;;;11.50;99.90;;;;;;5076049;28;20649;-76
2020/12/20 01:37:09;;;;;;;0.25;0.25;;;11.40;99.90;;;;;;5094324;28;20190;-77
2020/12/20 01:39:35;;;;;;;0.57;0.57;;;11.40;99.90;;;;;;5094293;28;20266;-76
2020/12/20 01:42:00;;;;;;;1.15;1.02;;;11.30;99.90;;;;;;5094175;28;20639;-76
2020/12/20 01:44:26;;;;;;;0.40;0.40;;;11.30;99.90;;;;;;5075977;28;20270;-77
2020/12/20 01:46:54;;;;;;;0.22;0.22;;;11.30;99.90;;;;;;5094039;28;20162;-75
2020/12/20 01:49:20;;;;;;;3.25;0.43;;;11.30;99.90;;;;;;5094040;28;20244;-75
2020/12/20 01:51:49;;;;;;;1.85;0.65;;;11.30;99.90;;;;;;5093806;28;20245;-75
2020/12/20 01:54:15;;;;;;;0.95;0.88;;;11.30;99.90;;;;;;5093684;28;20194;-75
2020/12/20 01:56:41;;;;;;;0.60;0.60;;;11.30;99.90;;;;;;5093744;28;20631;-74
2020/12/20 01:59:07;;;;;;;0.65;0.65;;;11.30;99.90;;;;;;5093731;28;20170;-74
2020/12/20 02:01:32;;;;;;;2.22;1.17;;;11.10;99.90;;;;;;5093707;28;20210;-75
2020/12/20 02:03:58;;;;;;;0.25;0.25;;;11.10;99.90;;;;;;5093473;28;20535;-74
2020/12/20 02:06:23;;;;;;;0.50;0.50;;;11.30;99.90;;;;;;5093625;28;20682;-75
2020/12/20 02:08:49;;;;;;;1.85;0.82;;;11.30;99.90;;;;;;5093378;28;20606;-75
2020/12/20 02:11:16;;;;;;;2.22;1.05;;;11.30;99.90;;;;;;5093508;28;20174;-75
2020/12/20 02:13:51;;;;;;;2.63;1.83;;;11.50;99.90;;;;;;5093636;28;20170;-75
2020/12/20 02:16:18;;;;;;;0.57;0.57;;;11.50;99.90;;;;;;5075358;28;20172;-75
2020/12/20 02:18:44;;;;;;;2.13;0.95;;;11.50;99.90;;;;;;5093433;28;20170;-75
2020/12/20 02:21:19;;;;;;;0.15;0.15;;;11.40;99.90;;;;;;5093312;28;20166;-75
2020/12/20 02:23:47;;;;;;;0.52;0.52;;;11.50;99.90;;;;;;5093249;28;20169;-74
2020/12/20 02:26:14;;;;;;;0.82;0.82;;;11.40;99.90;;;;;;5093345;28;20191;-75
2020/12/20 02:28:40;;;;;;;0.45;0.45;;;11.40;99.90;;;;;;5093286;28;20204;-75
2020/12/20 02:31:06;;;;;;;0.63;0.45;;;11.40;99.90;;;;;;5093160;28;20637;-75
2020/12/20 02:33:33;;;;;;;0.52;0.52;;;11.40;99.90;;;;;;5093201;28;20158;-75
2020/12/20 02:35:59;;;;;;;0.30;0.30;;;11.50;99.90;;;;;;5075127;28;20162;-75
2020/12/20 02:38:26;;;;;;;8.48;0.60;;;11.40;99.90;;;;;;5093117;28;20192;-75
2020/12/20 02:40:52;;;;;;;1.10;1.00;;;11.30;99.90;;;;;;5093191;28;20158;-75
2020/12/20 02:43:18;;;;;;;29.80;0.82;;;11.10;99.90;;;;;;5093054;28;20200;-75
2020/12/20 02:45:43;;;;;;;0.40;0.40;;;11.30;99.90;;;;;;5093122;28;20190;-75
2020/12/20 02:48:09;;;;;;;0.60;0.60;;;11.40;99.90;;;;;;5092997;28;20288;-74
2020/12/20 02:50:35;;;;;;;0.35;0.35;;;11.40;99.90;;;;;;5093047;28;20244;-76
2020/12/20 02:53:01;;;;;;;0.20;0.20;;;11.20;99.90;;;;;;5093122;28;20220;-75
2020/12/20 02:55:27;;;;;;;0.38;0.38;;;11.20;99.90;;;;;;5092870;28;20229;-75
2020/12/20 02:57:52;;;;;;;0.50;0.50;;;11.30;99.90;;;;;;5093145;28;20231;-75
2020/12/20 03:00:19;;;;;;;0.40;0.40;;;11.30;99.90;;;;;;5093293;28;20172;-74
2020/12/20 03:02:44;;;;;;;0.20;0.20;;;11.30;99.90;;;;;;5093071;28;20155;-75
2020/12/20 03:05:10;;;;;;;0.47;0.47;;;11.40;99.90;;;;;;5092872;28;20533;-75
2020/12/20 03:07:35;;;;;;;1.85;1.65;;;11.30;99.90;;;;;;5092805;28;20213;-75
2020/12/20 03:10:02;;;;;;;0.75;0.73;;;11.30;99.90;;;;;;5092856;28;20198;-74
2020/12/20 03:12:28;;;;;;;2.13;1.13;;;11.20;99.90;;;;;;5092912;28;20154;-75
2020/12/20 03:14:53;;;;;;;1.08;0.32;;;11.20;99.90;;;;;;5075014;28;20213;-75
2020/12/20 03:17:19;;;;;;;1.70;0.95;;;11.20;99.90;;;;;;5096717;28;20172;-75
2020/12/20 03:19:44;;;;;;;1.50;1.40;;;11.30;99.90;;;;;;5078715;28;20644;-75
2020/12/20 03:22:10;;;;;;;0.47;0.35;;;11.30;99.90;;;;;;5096702;28;20525;-74
2020/12/20 03:24:36;;;;;;;0.40;0.30;;;11.40;99.90;;;;;;5096781;28;20308;-75
2020/12/20 03:27:02;;;;;;;26.83;1.35;;;11.30;99.90;;;;;;5096462;28;20596;-74
2020/12/20 03:29:27;;;;;;;0.10;0.10;;;11.00;99.90;;;;;;5096582;28;20166;-74
2020/12/20 03:31:53;;;;;;;0.20;0.20;;;11.00;99.90;;;;;;5096510;28;20252;-76
2020/12/20 03:34:18;;;;;;;0.32;0.32;;;11.20;99.90;;;;;;5096336;28;20756;-75
2020/12/20 03:36:44;;;;;;;0.30;0.30;;;10.90;99.90;;;;;;5096341;28;20675;-75
2020/12/20 03:39:09;;;;;;;0.35;0.35;;;11.00;99.90;;;;;;5078275;28;20253;-75
2020/12/20 03:41:35;;;;;;;0.65;0.63;;;11.00;99.90;;;;;;5096266;28;20174;-74
2020/12/20 03:44:00;;;;;;;4.20;1.30;;;11.20;99.90;;;;;;5096202;28;20232;-74
2020/12/20 03:46:26;;;;;;;0.75;0.75;;;11.10;99.90;;;;;;5096266;28;20211;-75
2020/12/20 03:48:52;;;;;;;0.28;0.28;;;11.00;99.90;;;;;;5096114;28;20683;-75
2020/12/20 03:51:18;;;;;;;3.47;0.98;;;10.90;99.90;;;;;;5096180;28;20525;-75
2020/12/20 03:53:44;;;;;;;0.90;0.90;;;11.10;99.90;;;;;;5095940;28;20158;-75
2020/12/20 03:56:09;;;;;;;0.20;0.20;;;11.10;99.90;;;;;;5095930;28;20545;-75
2020/12/20 03:58:35;;;;;;;0.40;0.40;;;11.00;99.90;;;;;;5096006;28;20170;-75
2020/12/20 04:01:01;;;;;;;0.30;0.30;;;11.00;99.90;;;;;;5096014;28;20640;-75
2020/12/20 04:03:26;;;;;;;1.08;0.82;;;11.00;99.90;;;;;;5095986;28;20166;-74
2020/12/20 04:05:52;;;;;;;3.63;1.38;;;11.10;99.90;;;;;;5095767;28;20182;-74
2020/12/20 04:08:17;;;;;;;0.65;0.65;;;11.00;99.90;;;;;;5095788;28;20205;-74
2020/12/20 04:10:43;;;;;;;0.75;0.75;;;11.10;99.90;;;;;;5095743;28;20169;-74
2020/12/20 04:13:08;;;;;;;20.90;0.88;;;11.30;99.90;;;;;;5095693;28;20219;-75
2020/12/20 04:15:34;;;;;;;0.55;0.55;;;11.20;99.90;;;;;;5095598;28;20691;-75
2020/12/20 04:18:00;;;;;;;1.25;1.15;;;11.10;99.90;;;;;;5095701;28;20527;-75
2020/12/20 04:20:26;;;;;;;0.30;0.30;;;11.10;99.90;;;;;;5095641;28;20154;-75
2020/12/20 04:22:51;;;;;;;0.63;0.63;;;11.10;99.90;;;;;;5095541;28;20494;-75
2020/12/20 04:25:17;;;;;;;0.47;0.47;;;11.10;99.90;;;;;;5095768;28;20250;-75
2020/12/20 04:27:43;;;;;;;0.73;0.73;;;10.90;99.90;;;;;;5094186;28;20598;-74
2020/12/20 04:30:08;;;;;;;3.33;0.88;;;10.90;99.90;;;;;;5095255;28;20154;-74
2020/12/20 04:32:34;;;;;;;0.25;0.25;;;10.90;99.90;;;;;;5077357;28;20154;-75
2020/12/20 04:34:59;;;;;;;0.20;0.20;;;10.90;99.90;;;;;;5077120;28;20225;-75
2020/12/20 04:37:25;;;;;;;0.28;0.28;;;10.90;99.90;;;;;;5095152;28;20244;-75
2020/12/20 04:39:50;;;;;;;0.85;0.55;;;10.90;99.90;;;;;;5095233;28;20158;-75
2020/12/20 04:42:16;;;;;;;0.55;0.55;;;10.90;99.90;;;;;;5095179;28;20189;-75
2020/12/20 04:44:42;;;;;;;0.10;0.10;;;10.80;99.90;;;;;;5095020;28;20231;-75
2020/12/20 04:47:09;;;;;;;5.00;2.75;;;10.70;99.90;;;;;;5095250;28;20157;-75
2020/12/20 04:49:35;;;;;;;0.75;0.75;;;10.70;99.90;;;;;;5094919;28;20166;-74
2020/12/20 04:52:01;;;;;;;1.00;0.93;;;10.80;99.90;;;;;;5094928;28;20166;-74
2020/12/20 04:54:27;;;;;;;5.95;1.80;;;10.80;99.90;;;;;;5076411;28;20582;-74
2020/12/20 04:56:53;;;;;;;0.50;0.50;;;10.80;99.90;;;;;;5094838;28;20158;-74
2020/12/20 04:59:18;;;;;;;0.60;0.60;;;10.90;99.90;;;;;;5094836;28;20189;-74
2020/12/20 05:01:44;;;;;;;9.43;0.68;;;11.00;99.90;;;;;;5094669;28;20157;-74
2020/12/20 05:04:10;;;;;;;2.67;1.75;;;11.00;99.90;;;;;;5094668;28;20189;-75
2020/12/20 05:06:37;;;;;;;2.97;0.85;;;11.00;99.90;;;;;;5094731;28;20540;-74
2020/12/20 05:09:09;;;;;;;5.25;1.10;;;10.90;99.90;;;;;;5076272;28;20616;-75
2020/12/20 05:11:39;;;;;;;0.43;0.43;;;10.80;99.90;;;;;;5094638;28;20158;-74
2020/12/20 05:14:06;;;;;;;2.95;0.63;;;10.80;99.90;;;;;;5076275;28;20589;-74
2020/12/20 05:16:36;;;;;;;0.32;0.32;;;10.70;99.90;;;;;;5094780;28;20169;-74
2020/12/20 05:19:04;;;;;;;0.95;0.95;;;10.70;99.90;;;;;;5076579;28;20166;-74
2020/12/20 05:21:30;;;;;;;0.57;0.57;;;10.70;99.90;;;;;;5094447;28;20180;-74
2020/12/20 05:23:57;;;;;;;0.43;0.43;;;10.90;99.90;;;;;;5094161;28;20189;-75
2020/12/20 05:26:30;;;;;;;0.20;0.20;;;10.80;99.90;;;;;;5094296;28;20153;-74
2020/12/20 05:29:08;;;;;;;0.60;0.60;;;10.80;99.90;;;;;;5094199;28;20669;-74
2020/12/20 05:31:34;;;;;;;1.42;1.27;;;10.80;99.90;;;;;;5094175;28;20165;-74
2020/12/20 05:33:59;;;;;;;0.30;0.30;;;10.80;99.90;;;;;;5094048;28;20186;-74
2020/12/20 05:36:26;;;;;;;0.22;0.22;;;10.80;99.90;;;;;;5094048;28;20183;-74
2020/12/20 05:38:52;;;;;;;2.50;1.13;;;10.90;99.90;;;;;;5075598;28;20170;-74
2020/12/20 05:41:30;;;;;;;2.83;0.75;;;10.90;99.90;;;;;;5075806;28;20578;-74
2020/12/20 05:44:17;;;;;;;1.17;0.60;;;10.80;99.90;;;;;;5094111;28;20209;-74
2020/12/20 05:46:45;;;;;;;0.88;0.88;;;10.80;99.90;;;;;;5093949;28;20158;-74
2020/12/20 05:49:21;;;;;;;0.52;0.52;;;10.90;99.90;;;;;;5093735;28;20200;-74
2020/12/20 05:52:10;;;;;;;0.65;0.35;;;10.80;99.90;;;;;;5075741;28;20180;-74
2020/12/20 05:54:40;;;;;;;4.32;2.03;;;10.80;99.90;;;;;;5093343;28;20229;-76
2020/12/20 05:57:10;;;;;;;13.68;3.10;;;10.80;99.90;;;;;;5093784;28;20628;-74
2020/12/20 05:59:36;;;;;;;0.45;0.45;;;10.80;99.90;;;;;;5093678;28;20258;-74
2020/12/20 06:02:04;;;;;;;0.85;0.85;;;10.70;99.90;;;;;;5093640;28;20165;-74
2020/12/20 06:04:31;;;;;;;0.82;0.70;;;10.70;99.90;;;;;;5093662;28;20182;-75
2020/12/20 06:06:58;;;;;;;2.47;1.67;;;10.70;99.90;;;;;;5093388;28;20161;-75
2020/12/20 06:09:28;;;;;;;0.77;0.77;;;10.50;99.90;;;;;;5093591;28;20165;-75
2020/12/20 06:11:58;;;;;;;7.95;3.05;;;10.50;99.90;;;;;;5093366;28;20165;-75
2020/12/20 06:14:26;;;;;;;18.30;2.70;;;10.40;99.90;;;;;;5093384;28;20240;-75
2020/12/20 06:17:13;;;;;;;0.30;0.25;;;10.30;99.90;;;;;;5093307;28;20160;-76
2020/12/20 06:19:49;;;;;;;2.85;1.15;;;10.40;99.90;;;;;;5093421;28;20189;-75
2020/12/20 06:22:19;;;;;;;1.90;0.70;;;10.40;99.90;;;;;;5093256;28;20175;-75
2020/12/20 06:24:51;;;;;;;1.02;0.77;;;10.50;99.90;;;;;;5093101;28;20547;-75
2020/12/20 06:27:17;;;;;;;2.17;1.30;;;10.60;99.90;;;;;;5074544;28;20648;-75
2020/12/20 06:29:45;;;;;;;0.95;0.93;;;10.60;99.90;;;;;;5075028;28;20216;-75
2020/12/20 06:32:15;;;;;;;0.50;0.40;;;10.50;99.90;;;;;;5092824;28;20746;-75
2020/12/20 06:34:42;;;;;;;0.40;0.40;;;10.40;99.90;;;;;;5093052;28;20269;-76
2020/12/20 06:37:09;;;;;;;0.30;0.30;;;10.50;99.90;;;;;;5093086;28;20172;-75
2020/12/20 06:39:37;;;;;;;0.80;0.80;;;10.50;99.90;;;;;;5093503;28;20161;-76
2020/12/20 06:42:03;;;;;;;20.17;0.82;;;10.50;99.90;;;;;;5093111;28;20570;-76
2020/12/20 06:44:28;;;;;;;0.63;0.60;;;10.60;99.90;;;;;;5093024;28;20301;-76
2020/12/20 06:46:54;;;;;;;1.20;1.10;;;10.50;99.90;;;;;;5092961;28;20162;-76
2020/12/20 06:49:51;;;;;;;0.45;0.45;;;10.60;99.90;;;;;;5092874;28;20219;-75
2020/12/20 06:52:17;;;;;;;1.75;1.33;;;10.70;99.90;;;;;;5078364;28;20188;-76
2020/12/20 06:55:00;;;;;;;2.45;1.15;;;10.50;99.90;;;;;;5078664;28;20229;-76
2020/12/20 06:57:26;;;;;;;20.95;0.80;;;10.50;99.90;;;;;;5097282;28;20173;-83
2020/12/20 06:59:51;;;;;;;0.35;0.35;;;10.40;99.90;;;;;;5079069;28;20184;-76
2020/12/20 07:02:42;;;;;;;0.57;0.57;;;10.40;99.90;;;;;;5097096;28;20216;-76
2020/12/20 07:05:38;;;;;;;9.23;1.10;;;10.50;99.90;;;;;;5078801;28;20578;-76
2020/12/20 07:08:18;;;;;;;0.28;0.28;;;10.60;99.90;;;;;;5086594;28;20232;-76
2020/12/20 07:10:46;;;;;;;1.13;1.10;;;10.60;99.90;;;;;;5096720;28;20177;-76
2020/12/20 07:13:13;;;;;;;0.30;0.30;;;10.50;99.90;;;;;;5096829;28;20225;-75
2020/12/20 07:15:44;;;;;;;0.38;0.38;;;10.40;99.90;;;;;;5096759;28;20546;-74
2020/12/20 07:18:09;;;;;;;2.53;1.75;;;10.50;99.90;;;;;;5096625;28;20191;-76
2020/12/20 07:20:35;;;;;;;0.30;0.30;;;10.40;99.90;;;;;;5096947;28;20317;-75
2020/12/20 07:23:00;;;;;;;0.30;0.30;;;10.60;99.90;;;;;;5096579;28;20154;-75
2020/12/20 07:25:28;;;;;;;0.40;0.40;;;10.60;99.90;;;;;;5096912;28;20594;-76
2020/12/20 07:27:53;;;;;;;6.75;2.35;;;10.50;99.90;;;;;;5096433;28;20239;-76
2020/12/20 07:30:19;;;;;;;0.40;0.40;;;10.50;99.90;;;;;;5096445;28;20430;-76
2020/12/20 07:32:44;;;;;;;0.95;0.45;;;10.40;99.90;;;;;;5096598;28;20165;-76
2020/12/20 07:35:14;;;;;;;0.10;0.10;;;10.50;99.90;;;;;;5096277;28;20186;-75
2020/12/20 07:37:52;;;;;;;0.70;0.70;;;10.30;99.90;;;;;;5096293;28;20173;-76
2020/12/20 07:40:19;;;;;;;0.70;0.70;;;10.30;99.90;;;;;;5096097;28;20249;-76
2020/12/20 07:42:45;;;;;;;0.52;0.52;;;10.20;99.90;;;;;;5096225;28;20150;-76
2020/12/20 07:45:13;;;;;;;0.30;0.30;;;10.30;99.90;;;;;;5096059;28;20552;-76
2020/12/20 07:47:39;;;;;;;0.93;0.93;;;10.30;99.90;;;;;;5081627;28;20303;-76
2020/12/20 07:50:04;;;;;;;0.30;0.30;;;10.30;99.90;;;;;;5075881;28;20231;-76
2020/12/20 07:52:30;;;;;;;1.30;1.27;;;10.50;99.90;;;;;;5057818;28;20214;-76
2020/12/20 07:54:58;;;;;;;0.80;0.63;;;10.60;99.90;;;;;;5075376;28;20576;-76
2020/12/20 07:57:24;;;;;;;0.60;0.43;;;10.50;99.90;;;;;;5087594;28;20174;-75
2020/12/20 08:00:05;;;;;;;0.75;0.75;;;10.40;99.90;;;;;;5077538;28;20281;-75
2020/12/20 08:02:31;;;;;;;0.75;0.65;;;10.50;99.90;;;;;;5095318;28;20169;-76
2020/12/20 08:05:07;;;;;;;3.85;0.57;;;10.50;99.90;;;;;;5094627;28;20193;-76
2020/12/20 08:07:32;;;;;;;0.50;0.50;;;10.50;99.90;;;;;;5095081;28;20189;-77
2020/12/20 08:09:58;;;;;;;1.40;0.80;;;10.40;99.90;;;;;;5095681;28;20170;-75
2020/12/20 08:12:25;;;;;;;0.60;0.60;;;10.50;99.90;;;;;;5095568;28;20170;-76
2020/12/20 08:15:05;;;;;;;0.10;0.10;;;10.40;99.90;;;;;;5095303;28;20672;-75
2020/12/20 08:17:31;;;;;;;1.95;1.17;;;10.50;99.90;;;;;;5077156;28;20632;-76
2020/12/20 08:20:00;;;;;;;0.28;0.28;;;10.50;99.90;;;;;;5095442;28;20207;-75
2020/12/20 08:22:30;;;;;;;6.50;1.60;;;10.40;99.90;;;;;;5095420;28;20248;-76
2020/12/20 08:24:56;;;;;;;0.50;0.50;;;10.30;99.90;;;;;;5077187;28;20733;-75
2020/12/20 08:27:29;;;;;;;1.17;1.10;;;10.40;99.90;;;;;;5095259;28;20276;-75
2020/12/20 08:30:06;;;;;;;20.38;3.15;;;10.40;99.90;;;;;;5095345;28;20275;-74
2020/12/20 08:32:41;;;;;;;4.85;1.42;;;10.50;99.90;;;;;;5095261;28;20161;-75
2020/12/20 08:35:20;;;;;;;0.73;0.73;;;10.60;99.90;;;;;;5095085;28;20196;-75
2020/12/20 08:37:50;;;;;;;32.08;1.15;;;10.70;99.90;;;;;;5095028;28;20625;-75
2020/12/20 08:40:17;;;;;;;0.52;0.52;;;10.70;99.90;;;;;;5094908;28;20162;-74
2020/12/20 08:42:44;;;;;;;0.52;0.52;;;10.60;99.90;;;;;;5094972;28;20155;-75
2020/12/20 08:45:20;;;;;;;12.18;1.45;;;10.60;99.90;;;;;;5094756;28;20189;-75
2020/12/20 08:47:46;;;;;;;0.80;0.30;;;10.60;99.90;;;;;;5094564;28;20193;-77
2020/12/20 08:50:13;;;;;;;1.45;1.35;;;10.70;99.90;;;;;;5094547;28;20203;-76
2020/12/20 08:52:40;;;;;;;1.83;1.02;;;10.70;99.90;;;;;;5094766;28;20157;-76
2020/12/20 08:55:07;;;;;;;0.50;0.50;;;10.80;99.90;;;;;;5093451;28;20225;-75
2020/12/20 08:57:34;;;;;;;1.65;0.93;;;10.80;99.90;;;;;;5093905;28;20166;-76
2020/12/20 09:00:13;;;;;;;3.05;1.80;;;10.60;99.90;;;;;;5087576;28;20166;-75
2020/12/20 09:02:40;;;;;;;0.40;0.40;;;10.60;99.90;;;;;;5074376;28;20212;-75
2020/12/20 09:05:13;;;;;;;3.53;1.75;;;10.50;99.90;;;;;;5056427;28;20286;-76
2020/12/20 09:07:41;;;;;;;0.88;0.82;;;10.50;99.90;;;;;;5073962;28;20194;-75
2020/12/20 09:10:13;;;;;;;0.85;0.85;;;10.60;99.90;;;;;;5074413;28;20506;-75
2020/12/20 09:12:57;;;;;;;0.80;0.60;;;10.50;99.90;;;;;;5073733;28;20174;-76
2020/12/20 09:15:29;;;;;;;4.82;1.50;;;10.50;99.90;;;;;;5073958;28;20187;-76
2020/12/20 09:17:57;;;;;;;0.28;0.28;;;10.60;99.90;;;;;;5073497;28;20174;-75
2020/12/20 09:20:24;;;;;;;0.55;0.55;;;10.60;99.90;;;;;;5057417;28;20209;-76
2020/12/20 09:22:55;;;;;;;4.10;1.85;;;10.70;99.90;;;;;;5054365;28;20201;-76
2020/12/20 09:25:39;;;;;;;0.90;0.85;;;10.70;99.90;;;;;;5054439;28;20285;-75
2020/12/20 09:28:08;;;;;;;0.52;0.52;;;10.80;99.90;;;;;;5069292;28;20218;-75
2020/12/20 09:30:47;;;;;;;0.63;0.63;;;10.80;99.90;;;;;;5072768;28;20178;-75
2020/12/20 09:33:25;;;;;;;2.10;1.33;;;10.70;99.90;;;;;;5072721;28;20154;-75
2020/12/20 09:36:04;;;;;;;0.90;0.90;;;10.70;99.90;;;;;;5072252;28;20691;-75
2020/12/20 09:38:51;;;;;;;6.78;1.17;;;10.60;99.90;;;;;;5054739;28;20355;-75
2020/12/20 09:41:19;;;;;;;0.98;0.98;;;10.70;99.90;;;;;;5054263;28;20171;-75
2020/12/20 09:43:46;;;;;;;0.95;0.95;;;10.80;99.90;;;;;;5054238;28;20543;-81
2020/12/20 09:46:23;;;;;;;0.43;0.43;;;10.90;99.90;;;;;;5080815;28;20201;-87
2020/12/20 09:48:50;;;;;;;0.50;0.50;;;10.90;99.90;;;;;;5079281;28;20204;-76
2020/12/20 09:51:19;;;;;;;2.85;1.95;;;11.00;99.90;;;;;;5074682;28;20165;-79
2020/12/20 09:53:47;;;;;;;3.60;1.20;;;11.10;99.90;;;;;;5079805;28;20183;-81
2020/12/20 09:56:13;;;;;;;0.93;0.57;;;11.40;99.90;;;;;;5054739;28;20731;-82
2020/12/20 09:58:39;;;;;;;1.27;1.17;;;11.40;99.90;;;;;;5054801;28;20169;-76
2020/12/20 10:01:05;;;;;;;0.57;0.57;;;11.60;99.90;;;;;;5072355;28;20216;-75
2020/12/20 10:03:31;;;;;;;2.03;1.65;;;11.70;99.90;;;;;;5072287;28;20166;-77
2020/12/20 10:05:58;;;;;;;2.58;0.77;;;11.80;99.90;;;;;;5072239;28;20174;-76
2020/12/20 10:08:24;;;;;;;0.30;0.30;;;11.50;99.90;;;;;;5072371;28;20618;-76
2020/12/20 10:10:52;;;;;;;1.90;1.52;;;11.40;99.90;;;;;;5072274;28;20174;-76
2020/12/20 10:13:18;;;;;;;0.50;0.50;;;11.60;99.90;;;;;;5071554;28;20694;-77
2020/12/20 10:15:43;;;;;;;0.20;0.20;;;11.60;99.90;;;;;;5072287;28;20261;-76
2020/12/20 10:18:09;;;;;;;0.30;0.30;;;11.50;99.90;;;;;;5071520;28;20534;-75
2020/12/20 10:20:34;;;;;;;0.70;0.70;;;11.50;99.90;;;;;;5072705;28;20162;-76
2020/12/20 10:23:00;;;;;;;1.30;1.20;;;11.50;99.90;;;;;;5072844;28;20257;-76
2020/12/20 10:25:26;;;;;;;4.35;2.50;;;11.60;99.90;;;;;;5071900;28;20178;-76
2020/12/20 10:27:56;;;;;;;0.93;0.93;;;11.70;99.90;;;;;;5071896;28;20190;-75
2020/12/20 10:30:22;;;;;;;6.22;0.82;;;11.70;99.90;;;;;;5054538;28;20174;-75
2020/12/20 10:32:48;;;;;;;2.85;2.00;;;11.70;99.90;;;;;;5072368;28;20174;-75
2020/12/20 10:35:17;;;;;;;4.88;0.40;;;11.60;99.90;;;;;;5072191;28;20214;-75
2020/12/20 10:37:43;;;;;;;0.52;0.52;;;11.60;99.90;;;;;;5071620;28;20182;-74
2020/12/20 10:40:09;;;;;;;2.58;1.35;;;11.60;99.90;;;;;;5072264;28;20154;-75
2020/12/20 10:42:35;;;;;;;5.25;2.08;;;11.60;99.90;;;;;;5072081;28;20159;-75
2020/12/20 10:45:00;;;;;;;0.50;0.50;;;11.60;99.90;;;;;;5053795;28;20197;-77
2020/12/20 10:47:26;;;;;;;11.80;0.80;;;11.70;99.90;;;;;;5053560;28;20273;-75
2020/12/20 10:49:52;;;;;;;0.95;0.95;;;11.90;99.90;;;;;;5072298;28;20636;-75
2020/12/20 10:52:17;;;;;;;0.68;0.68;;;12.10;99.90;;;;;;5071996;28;20173;-74
2020/12/20 10:54:46;;;;;;;1.15;1.15;;;12.10;99.90;;;;;;5053379;28;20226;-74
2020/12/20 10:57:12;;;;;;;0.38;0.38;;;12.10;99.90;;;;;;5071805;28;20517;-74
2020/12/20 10:59:37;;;;;;;4.10;1.20;;;12.10;99.90;;;;;;5071868;28;20165;-74
2020/12/20 11:02:04;;;;;;;1.05;0.95;;;12.10;99.90;;;;;;5054100;28;20178;-75
2020/12/20 11:04:30;;;;;;;0.32;0.32;;;12.00;99.90;;;;;;5053624;28;20191;-75
2020/12/20 11:06:57;;;;;;;0.20;0.20;;;12.00;99.90;;;;;;5071876;28;20193;-74
2020/12/20 11:09:26;;;;;;;0.50;0.40;;;12.10;99.90;;;;;;5072187;28;20206;-74
2020/12/20 11:11:55;;;;;;;3.10;1.20;;;12.30;99.90;;;;;;5054034;28;20170;-74
2020/12/20 11:14:21;;;;;;;1.05;1.00;;;12.30;99.90;;;;;;5074778;28;20209;-74
2020/12/20 11:16:51;;;;;;;1.98;0.82;;;12.40;99.90;;;;;;5090385;28;20178;-75
2020/12/20 11:19:19;;;;;;;0.30;0.30;;;12.10;99.90;;;;;;5073846;28;20215;-75
2020/12/20 11:21:49;;;;;;;1.25;1.20;;;12.00;99.90;;;;;;5092379;28;20248;-75
2020/12/20 11:24:15;;;;;;;0.40;0.40;;;12.00;99.90;;;;;;5092046;28;20193;-74
2020/12/20 11:26:45;;;;;;;0.77;0.77;;;12.00;99.90;;;;;;5092472;28;20599;-75
2020/12/20 11:29:13;;;;;;;0.75;0.75;;;12.10;99.90;;;;;;5092321;28;20216;-76
2020/12/20 11:31:38;;;;;;;2.97;1.33;;;12.30;99.90;;;;;;5092393;28;20691;-78
2020/12/20 11:34:06;;;;;;;13.48;0.70;;;12.40;99.90;;;;;;5074370;28;20285;-78
2020/12/20 11:36:32;;;;;;;0.65;0.65;;;12.50;99.90;;;;;;5075903;28;20165;-75
2020/12/20 11:38:58;;;;;;;0.20;0.20;;;12.40;99.90;;;;;;5096177;28;20195;-76
2020/12/20 11:41:25;;;;;;;2.05;0.95;;;12.50;99.90;;;;;;5096083;28;20508;-75
2020/12/20 11:43:52;;;;;;;0.93;0.38;;;12.50;99.90;;;;;;5095616;28;20216;-74
2020/12/20 11:46:18;;;;;;;1.90;1.05;;;12.40;99.90;;;;;;5096509;28;20158;-75
2020/12/20 11:48:44;;;;;;;1.67;1.55;;;12.40;99.90;;;;;;5077774;28;20201;-75
2020/12/20 11:51:11;;;;;;;7.85;1.10;;;12.50;99.90;;;;;;5077786;28;20154;-75
2020/12/20 11:53:37;;;;;;;1.17;0.77;;;12.50;99.90;;;;;;5095724;28;20255;-75
2020/12/20 11:56:10;;;;;;;1.10;0.55;;;12.50;99.90;;;;;;5095516;28;20319;-75
2020/12/20 11:58:38;;;;;;;1.25;1.15;;;12.50;99.90;;;;;;5095510;28;20219;-76
2020/12/20 12:01:04;;;;;;;4.07;1.85;;;12.50;99.90;;;;;;5095221;28;20158;-75
2020/12/20 12:03:30;;;;;;;1.05;0.63;;;12.40;99.90;;;;;;5095650;28;20248;-76
2020/12/20 12:05:57;;;;;;;0.85;0.68;;;12.40;99.90;;;;;;5085701;28;20369;-78
2020/12/20 12:08:23;;;;;;;0.20;0.20;;;12.40;99.90;;;;;;5075325;28;20202;-83
2020/12/20 12:10:51;;;;;;;1.65;0.75;;;12.40;99.90;;;;;;5057452;28;20215;-76
2020/12/20 12:13:17;;;;;;;1.42;1.10;;;12.20;99.90;;;;;;5075371;28;20561;-75
2020/12/20 12:15:44;;;;;;;0.68;0.68;;;12.20;99.90;;;;;;5075169;28;20179;-76
2020/12/20 12:18:10;;;;;;;1.75;1.02;;;12.10;99.90;;;;;;5075283;28;20170;-75
2020/12/20 12:20:37;;;;;;;0.65;0.65;;;11.90;99.90;;;;;;5075007;28;20177;-76
2020/12/20 12:23:03;;;;;;;0.32;0.32;;;12.00;99.90;;;;;;5074959;28;20243;-76
2020/12/20 12:25:28;;;;;;;0.70;0.43;;;12.20;99.90;;;;;;5075035;28;20744;-75
2020/12/20 12:27:54;;;;;;;0.30;0.30;;;12.20;99.90;;;;;;5075027;28;20293;-75
2020/12/20 12:30:20;;;;;;;0.30;0.30;;;11.90;99.90;;;;;;5074958;28;20614;-76
2020/12/20 12:32:45;;;;;;;1.17;0.75;;;12.10;99.90;;;;;;5075065;28;20174;-74
2020/12/20 12:35:11;;;;;;;0.60;0.60;;;12.30;99.90;;;;;;5075088;28;20226;-75
2020/12/20 12:37:37;;;;;;;0.75;0.47;;;12.30;99.90;;;;;;5074469;28;20163;-75
2020/12/20 12:40:05;;;;;;;1.45;0.93;;;12.60;99.90;;;;;;5074697;28;20520;-74
2020/12/20 12:42:31;;;;;;;16.63;0.50;;;12.70;99.90;;;;;;5074959;28;20194;-75
2020/12/20 12:44:56;;;;;;;0.40;0.40;;;12.70;99.90;;;;;;5074614;28;20637;-75
2020/12/20 12:47:22;;;;;;;0.60;0.60;;;12.50;99.90;;;;;;5073744;28;20162;-74
2020/12/20 12:49:48;;;;;;;0.82;0.82;;;12.50;99.90;;;;;;5074313;28;20158;-75